sensor_id;sensor_type;location;lat;lon;timestamp;P1;durP1;ratioP1;P2;durP2;ratioP2
23302;SDS011;11820;48.738;9.092;2023-06-04T00:02:03;7.37;;;5.43;;
23302;SDS011;11820;48.738;9.092;2023-06-04T00:04:28;5.93;;;5.33;;
23302;SDS011;11820;48.738;9.092;2023-06-04T00:06:55;6.20;;;5.60;;
23302;SDS011;11820;48.738;9.092;2023-06-04T00:09:20;7.13;;;5.77;;
23302;SDS011;11820;48.738;9.092;2023-06-04T00:11:46;6.60;;;5.70;;
23302;SDS011;11820;48.738;9.092;2023-06-04T00:14:13;7.60;;;5.70;;
23302;SDS011;11820;48.738;9.092;2023-06-04T00:16:39;7.73;;;5.50;;
23302;SDS011;11820;48.738;9.092;2023-06-04T00:19:05;10.43;;;5.70;;
23302;SDS011;11820;48.738;9.092;2023-06-04T00:21:31;6.10;;;5.50;;
23302;SDS011;11820;48.738;9.092;2023-06-04T00:23:56;8.53;;;5.70;;
23302;SDS011;11820;48.738;9.092;2023-06-04T00:26:22;6.60;;;5.43;;
23302;SDS011;11820;48.738;9.092;2023-06-04T00:28:47;6.30;;;5.53;;
23302;SDS011;11820;48.738;9.092;2023-06-04T00:31:12;6.80;;;5.53;;
23302;SDS011;11820;48.738;9.092;2023-06-04T00:33:38;8.23;;;5.23;;
23302;SDS011;11820;48.738;9.092;2023-06-04T00:36:04;5.90;;;5.30;;
23302;SDS011;11820;48.738;9.092;2023-06-04T00:38:29;6.50;;;5.80;;
23302;SDS011;11820;48.738;9.092;2023-06-04T00:40:55;7.43;;;5.90;;
23302;SDS011;11820;48.738;9.092;2023-06-04T00:43:20;6.53;;;5.80;;
23302;SDS011;11820;48.738;9.092;2023-06-04T00:45:45;7.70;;;5.63;;
23302;SDS011;11820;48.738;9.092;2023-06-04T00:48:11;6.10;;;5.23;;
23302;SDS011;11820;48.738;9.092;2023-06-04T00:50:36;7.17;;;6.00;;
23302;SDS011;11820;48.738;9.092;2023-06-04T00:53:04;5.90;;;5.20;;
23302;SDS011;11820;48.738;9.092;2023-06-04T00:55:30;6.20;;;5.37;;
23302;SDS011;11820;48.738;9.092;2023-06-04T00:57:56;7.53;;;5.63;;
23302;SDS011;11820;48.738;9.092;2023-06-04T01:00:22;6.00;;;5.37;;
23302;SDS011;11820;48.738;9.092;2023-06-04T01:02:47;7.20;;;6.00;;
23302;SDS011;11820;48.738;9.092;2023-06-04T01:07:49;7.27;;;5.70;;
23302;SDS011;11820;48.738;9.092;2023-06-04T01:10:15;7.10;;;5.30;;
23302;SDS011;11820;48.738;9.092;2023-06-04T01:12:41;7.07;;;5.90;;
23302;SDS011;11820;48.738;9.092;2023-06-04T01:15:07;6.03;;;5.47;;
23302;SDS011;11820;48.738;9.092;2023-06-04T01:20:18;6.63;;;5.97;;
23302;SDS011;11820;48.738;9.092;2023-06-04T01:28:04;6.37;;;5.63;;
23302;SDS011;11820;48.738;9.092;2023-06-04T01:30:31;7.27;;;6.00;;
23302;SDS011;11820;48.738;9.092;2023-06-04T01:32:59;6.47;;;5.67;;
23302;SDS011;11820;48.738;9.092;2023-06-04T01:35:26;5.57;;;4.90;;
23302;SDS011;11820;48.738;9.092;2023-06-04T01:37:52;6.47;;;5.77;;
23302;SDS011;11820;48.738;9.092;2023-06-04T01:40:19;6.73;;;5.70;;
23302;SDS011;11820;48.738;9.092;2023-06-04T01:42:45;7.53;;;5.63;;
23302;SDS011;11820;48.738;9.092;2023-06-04T01:45:10;6.50;;;5.47;;
23302;SDS011;11820;48.738;9.092;2023-06-04T01:47:36;6.40;;;5.60;;
23302;SDS011;11820;48.738;9.092;2023-06-04T01:50:02;7.23;;;5.67;;
23302;SDS011;11820;48.738;9.092;2023-06-04T01:52:28;5.27;;;4.77;;
23302;SDS011;11820;48.738;9.092;2023-06-04T01:54:54;6.53;;;5.23;;
23302;SDS011;11820;48.738;9.092;2023-06-04T01:57:21;6.20;;;5.37;;
23302;SDS011;11820;48.738;9.092;2023-06-04T01:59:46;5.70;;;5.17;;
23302;SDS011;11820;48.738;9.092;2023-06-04T02:02:13;8.97;;;5.03;;
23302;SDS011;11820;48.738;9.092;2023-06-04T02:04:39;7.83;;;5.67;;
23302;SDS011;11820;48.738;9.092;2023-06-04T02:07:06;5.27;;;4.77;;
23302;SDS011;11820;48.738;9.092;2023-06-04T02:09:35;6.17;;;5.23;;
23302;SDS011;11820;48.738;9.092;2023-06-04T02:12:00;6.60;;;5.20;;
23302;SDS011;11820;48.738;9.092;2023-06-04T02:14:26;6.43;;;5.40;;
23302;SDS011;11820;48.738;9.092;2023-06-04T02:16:52;5.87;;;5.27;;
23302;SDS011;11820;48.738;9.092;2023-06-04T02:19:22;6.17;;;5.53;;
23302;SDS011;11820;48.738;9.092;2023-06-04T02:21:53;7.03;;;5.97;;
23302;SDS011;11820;48.738;9.092;2023-06-04T02:24:19;8.97;;;5.33;;
23302;SDS011;11820;48.738;9.092;2023-06-04T02:26:44;7.03;;;6.33;;
23302;SDS011;11820;48.738;9.092;2023-06-04T02:29:10;7.17;;;5.70;;
23302;SDS011;11820;48.738;9.092;2023-06-04T02:31:35;6.93;;;5.63;;
23302;SDS011;11820;48.738;9.092;2023-06-04T02:34:00;8.00;;;6.00;;
23302;SDS011;11820;48.738;9.092;2023-06-04T02:36:26;5.97;;;5.10;;
23302;SDS011;11820;48.738;9.092;2023-06-04T02:38:51;6.37;;;5.47;;
23302;SDS011;11820;48.738;9.092;2023-06-04T02:41:17;6.43;;;5.40;;
23302;SDS011;11820;48.738;9.092;2023-06-04T02:43:42;14.93;;;5.90;;
23302;SDS011;11820;48.738;9.092;2023-06-04T02:46:08;6.53;;;5.70;;
23302;SDS011;11820;48.738;9.092;2023-06-04T02:48:33;6.07;;;5.43;;
23302;SDS011;11820;48.738;9.092;2023-06-04T02:50:58;7.07;;;5.03;;
23302;SDS011;11820;48.738;9.092;2023-06-04T02:53:23;6.00;;;5.40;;
23302;SDS011;11820;48.738;9.092;2023-06-04T02:55:49;6.00;;;5.40;;
23302;SDS011;11820;48.738;9.092;2023-06-04T02:58:17;8.03;;;4.93;;
23302;SDS011;11820;48.738;9.092;2023-06-04T03:00:42;6.97;;;5.83;;
23302;SDS011;11820;48.738;9.092;2023-06-04T03:03:07;9.50;;;5.60;;
23302;SDS011;11820;48.738;9.092;2023-06-04T03:05:32;6.33;;;5.07;;
23302;SDS011;11820;48.738;9.092;2023-06-04T03:07:58;6.33;;;5.70;;
23302;SDS011;11820;48.738;9.092;2023-06-04T03:10:26;6.53;;;5.73;;
23302;SDS011;11820;48.738;9.092;2023-06-04T03:12:51;5.73;;;5.23;;
23302;SDS011;11820;48.738;9.092;2023-06-04T03:15:16;5.57;;;5.07;;
23302;SDS011;11820;48.738;9.092;2023-06-04T03:17:41;6.43;;;5.83;;
23302;SDS011;11820;48.738;9.092;2023-06-04T03:20:07;8.00;;;5.37;;
23302;SDS011;11820;48.738;9.092;2023-06-04T03:22:34;8.50;;;5.83;;
23302;SDS011;11820;48.738;9.092;2023-06-04T03:25:00;10.13;;;5.53;;
23302;SDS011;11820;48.738;9.092;2023-06-04T03:27:26;8.97;;;5.60;;
23302;SDS011;11820;48.738;9.092;2023-06-04T03:29:51;6.87;;;5.43;;
23302;SDS011;11820;48.738;9.092;2023-06-04T03:32:17;6.87;;;5.30;;
23302;SDS011;11820;48.738;9.092;2023-06-04T03:34:42;6.10;;;5.60;;
23302;SDS011;11820;48.738;9.092;2023-06-04T03:37:08;7.50;;;5.60;;
23302;SDS011;11820;48.738;9.092;2023-06-04T03:39:33;6.63;;;5.37;;
23302;SDS011;11820;48.738;9.092;2023-06-04T03:41:58;9.13;;;5.43;;
23302;SDS011;11820;48.738;9.092;2023-06-04T03:44:24;5.90;;;5.30;;
23302;SDS011;11820;48.738;9.092;2023-06-04T03:46:49;7.13;;;5.90;;
23302;SDS011;11820;48.738;9.092;2023-06-04T03:49:14;6.43;;;5.33;;
23302;SDS011;11820;48.738;9.092;2023-06-04T03:51:42;6.87;;;6.13;;
23302;SDS011;11820;48.738;9.092;2023-06-04T03:54:08;6.43;;;5.83;;
23302;SDS011;11820;48.738;9.092;2023-06-04T03:56:33;7.60;;;5.57;;
23302;SDS011;11820;48.738;9.092;2023-06-04T03:58:59;6.00;;;5.43;;
23302;SDS011;11820;48.738;9.092;2023-06-04T04:01:24;5.60;;;4.80;;
23302;SDS011;11820;48.738;9.092;2023-06-04T04:03:50;6.67;;;5.37;;
23302;SDS011;11820;48.738;9.092;2023-06-04T04:06:16;5.83;;;4.93;;
23302;SDS011;11820;48.738;9.092;2023-06-04T04:08:42;6.73;;;5.07;;
23302;SDS011;11820;48.738;9.092;2023-06-04T04:11:09;5.30;;;4.80;;
23302;SDS011;11820;48.738;9.092;2023-06-04T04:13:35;6.00;;;4.60;;
23302;SDS011;11820;48.738;9.092;2023-06-04T04:16:00;6.83;;;5.40;;
23302;SDS011;11820;48.738;9.092;2023-06-04T04:18:26;5.67;;;4.90;;
23302;SDS011;11820;48.738;9.092;2023-06-04T04:20:51;8.33;;;5.27;;
23302;SDS011;11820;48.738;9.092;2023-06-04T04:23:16;7.23;;;5.20;;
23302;SDS011;11820;48.738;9.092;2023-06-04T04:25:42;5.30;;;4.80;;
23302;SDS011;11820;48.738;9.092;2023-06-04T04:28:09;6.37;;;5.20;;
23302;SDS011;11820;48.738;9.092;2023-06-04T04:30:34;5.57;;;5.07;;
23302;SDS011;11820;48.738;9.092;2023-06-04T04:33:00;6.13;;;5.47;;
23302;SDS011;11820;48.738;9.092;2023-06-04T04:35:26;8.63;;;5.17;;
23302;SDS011;11820;48.738;9.092;2023-06-04T04:37:51;6.13;;;5.33;;
23302;SDS011;11820;48.738;9.092;2023-06-04T04:40:17;6.53;;;5.67;;
23302;SDS011;11820;48.738;9.092;2023-06-04T04:42:42;5.43;;;4.93;;
23302;SDS011;11820;48.738;9.092;2023-06-04T04:45:08;5.37;;;4.87;;
23302;SDS011;11820;48.738;9.092;2023-06-04T04:47:34;5.87;;;5.27;;
23302;SDS011;11820;48.738;9.092;2023-06-04T04:49:59;7.10;;;4.60;;
23302;SDS011;11820;48.738;9.092;2023-06-04T04:52:25;5.70;;;4.73;;
23302;SDS011;11820;48.738;9.092;2023-06-04T04:54:50;5.60;;;5.10;;
23302;SDS011;11820;48.738;9.092;2023-06-04T04:57:17;5.90;;;5.07;;
23302;SDS011;11820;48.738;9.092;2023-06-04T04:59:42;6.63;;;5.67;;
23302;SDS011;11820;48.738;9.092;2023-06-04T05:02:07;5.70;;;4.97;;
23302;SDS011;11820;48.738;9.092;2023-06-04T05:04:33;5.70;;;5.20;;
23302;SDS011;11820;48.738;9.092;2023-06-04T05:06:58;6.43;;;5.77;;
23302;SDS011;11820;48.738;9.092;2023-06-04T05:09:23;7.57;;;5.50;;
23302;SDS011;11820;48.738;9.092;2023-06-04T05:11:48;5.63;;;5.07;;
23302;SDS011;11820;48.738;9.092;2023-06-04T05:14:14;6.27;;;5.60;;
23302;SDS011;11820;48.738;9.092;2023-06-04T05:16:39;4.83;;;4.37;;
23302;SDS011;11820;48.738;9.092;2023-06-04T05:19:05;5.03;;;4.53;;
23302;SDS011;11820;48.738;9.092;2023-06-04T05:21:31;5.03;;;4.53;;
23302;SDS011;11820;48.738;9.092;2023-06-04T05:23:56;5.10;;;4.60;;
23302;SDS011;11820;48.738;9.092;2023-06-04T05:26:21;4.80;;;4.27;;
23302;SDS011;11820;48.738;9.092;2023-06-04T05:28:50;5.30;;;3.93;;
23302;SDS011;11820;48.738;9.092;2023-06-04T05:31:15;5.83;;;3.90;;
23302;SDS011;11820;48.738;9.092;2023-06-04T05:33:43;5.27;;;3.60;;
23302;SDS011;11820;48.738;9.092;2023-06-04T05:36:08;6.90;;;3.80;;
23302;SDS011;11820;48.738;9.092;2023-06-04T05:38:33;5.43;;;3.70;;
23302;SDS011;11820;48.738;9.092;2023-06-04T05:41:00;5.70;;;3.80;;
23302;SDS011;11820;48.738;9.092;2023-06-04T05:43:26;4.10;;;3.60;;
23302;SDS011;11820;48.738;9.092;2023-06-04T05:45:51;4.07;;;3.40;;
23302;SDS011;11820;48.738;9.092;2023-06-04T05:48:17;5.33;;;3.57;;
23302;SDS011;11820;48.738;9.092;2023-06-04T05:50:42;6.33;;;4.37;;
23302;SDS011;11820;48.738;9.092;2023-06-04T05:53:08;3.83;;;3.17;;
23302;SDS011;11820;48.738;9.092;2023-06-04T05:55:33;3.73;;;3.33;;
23302;SDS011;11820;48.738;9.092;2023-06-04T05:57:59;4.77;;;3.47;;
23302;SDS011;11820;48.738;9.092;2023-06-04T06:00:24;3.33;;;2.60;;
23302;SDS011;11820;48.738;9.092;2023-06-04T06:02:50;7.17;;;3.40;;
23302;SDS011;11820;48.738;9.092;2023-06-04T06:05:17;5.27;;;2.97;;
23302;SDS011;11820;48.738;9.092;2023-06-04T06:07:43;2.83;;;2.63;;
23302;SDS011;11820;48.738;9.092;2023-06-04T06:10:09;3.63;;;2.40;;
23302;SDS011;11820;48.738;9.092;2023-06-04T06:12:35;4.47;;;2.70;;
23302;SDS011;11820;48.738;9.092;2023-06-04T06:15:00;3.77;;;2.73;;
23302;SDS011;11820;48.738;9.092;2023-06-04T06:17:25;2.90;;;2.60;;
23302;SDS011;11820;48.738;9.092;2023-06-04T06:19:51;3.17;;;2.33;;
23302;SDS011;11820;48.738;9.092;2023-06-04T06:22:17;6.10;;;2.40;;
23302;SDS011;11820;48.738;9.092;2023-06-04T06:24:42;3.83;;;2.20;;
23302;SDS011;11820;48.738;9.092;2023-06-04T06:27:07;6.07;;;2.50;;
23302;SDS011;11820;48.738;9.092;2023-06-04T06:29:33;2.30;;;2.10;;
23302;SDS011;11820;48.738;9.092;2023-06-04T06:31:58;3.63;;;2.30;;
23302;SDS011;11820;48.738;9.092;2023-06-04T06:34:24;4.13;;;2.30;;
23302;SDS011;11820;48.738;9.092;2023-06-04T06:36:49;2.80;;;1.97;;
23302;SDS011;11820;48.738;9.092;2023-06-04T06:39:15;3.07;;;2.77;;
23302;SDS011;11820;48.738;9.092;2023-06-04T06:41:40;4.57;;;2.70;;
23302;SDS011;11820;48.738;9.092;2023-06-04T06:44:06;5.53;;;2.10;;
23302;SDS011;11820;48.738;9.092;2023-06-04T06:46:31;4.53;;;2.70;;
23302;SDS011;11820;48.738;9.092;2023-06-04T06:48:57;3.10;;;2.60;;
23302;SDS011;11820;48.738;9.092;2023-06-04T06:51:22;2.77;;;2.30;;
23302;SDS011;11820;48.738;9.092;2023-06-04T06:53:49;6.87;;;2.43;;
23302;SDS011;11820;48.738;9.092;2023-06-04T06:56:16;4.97;;;3.13;;
23302;SDS011;11820;48.738;9.092;2023-06-04T06:58:43;3.00;;;2.33;;
23302;SDS011;11820;48.738;9.092;2023-06-04T07:01:08;2.90;;;2.23;;
23302;SDS011;11820;48.738;9.092;2023-06-04T07:03:34;4.63;;;2.20;;
23302;SDS011;11820;48.738;9.092;2023-06-04T07:05:59;3.27;;;2.23;;
23302;SDS011;11820;48.738;9.092;2023-06-04T07:08:25;3.60;;;2.27;;
23302;SDS011;11820;48.738;9.092;2023-06-04T07:10:50;4.10;;;2.43;;
23302;SDS011;11820;48.738;9.092;2023-06-04T07:13:16;3.27;;;2.40;;
23302;SDS011;11820;48.738;9.092;2023-06-04T07:15:41;6.67;;;2.70;;
23302;SDS011;11820;48.738;9.092;2023-06-04T07:18:07;3.17;;;2.70;;
23302;SDS011;11820;48.738;9.092;2023-06-04T07:20:32;5.93;;;2.70;;
23302;SDS011;11820;48.738;9.092;2023-06-04T07:22:57;5.33;;;2.17;;
23302;SDS011;11820;48.738;9.092;2023-06-04T07:25:22;4.37;;;2.70;;
23302;SDS011;11820;48.738;9.092;2023-06-04T07:27:48;4.97;;;2.40;;
23302;SDS011;11820;48.738;9.092;2023-06-04T07:30:17;8.03;;;2.70;;
23302;SDS011;11820;48.738;9.092;2023-06-04T07:32:47;4.73;;;2.67;;
23302;SDS011;11820;48.738;9.092;2023-06-04T07:35:13;3.43;;;2.47;;
23302;SDS011;11820;48.738;9.092;2023-06-04T07:37:38;3.77;;;2.30;;
23302;SDS011;11820;48.738;9.092;2023-06-04T07:40:03;3.80;;;2.40;;
23302;SDS011;11820;48.738;9.092;2023-06-04T07:42:29;3.53;;;2.57;;
23302;SDS011;11820;48.738;9.092;2023-06-04T07:44:55;4.83;;;2.67;;
23302;SDS011;11820;48.738;9.092;2023-06-04T07:47:20;3.13;;;2.20;;
23302;SDS011;11820;48.738;9.092;2023-06-04T07:49:45;2.70;;;2.20;;
23302;SDS011;11820;48.738;9.092;2023-06-04T07:52:11;4.20;;;2.20;;
23302;SDS011;11820;48.738;9.092;2023-06-04T07:54:36;5.30;;;2.97;;
23302;SDS011;11820;48.738;9.092;2023-06-04T07:57:02;4.60;;;2.40;;
23302;SDS011;11820;48.738;9.092;2023-06-04T07:59:27;3.47;;;2.30;;
23302;SDS011;11820;48.738;9.092;2023-06-04T08:01:54;4.00;;;2.20;;
23302;SDS011;11820;48.738;9.092;2023-06-04T08:04:19;2.60;;;1.90;;
23302;SDS011;11820;48.738;9.092;2023-06-04T08:06:45;3.53;;;2.47;;
23302;SDS011;11820;48.738;9.092;2023-06-04T08:09:11;5.73;;;2.50;;
23302;SDS011;11820;48.738;9.092;2023-06-04T08:11:38;6.73;;;1.83;;
23302;SDS011;11820;48.738;9.092;2023-06-04T08:14:06;7.03;;;2.57;;
23302;SDS011;11820;48.738;9.092;2023-06-04T08:16:31;3.30;;;2.60;;
23302;SDS011;11820;48.738;9.092;2023-06-04T08:18:57;3.93;;;2.20;;
23302;SDS011;11820;48.738;9.092;2023-06-04T08:21:25;2.90;;;2.30;;
23302;SDS011;11820;48.738;9.092;2023-06-04T08:23:52;3.93;;;2.40;;
23302;SDS011;11820;48.738;9.092;2023-06-04T08:26:18;7.17;;;2.70;;
23302;SDS011;11820;48.738;9.092;2023-06-04T08:28:44;4.23;;;2.20;;
23302;SDS011;11820;48.738;9.092;2023-06-04T08:31:12;4.90;;;2.40;;
23302;SDS011;11820;48.738;9.092;2023-06-04T08:33:37;3.57;;;2.20;;
23302;SDS011;11820;48.738;9.092;2023-06-04T08:36:02;6.27;;;2.50;;
23302;SDS011;11820;48.738;9.092;2023-06-04T08:38:28;4.83;;;2.50;;
23302;SDS011;11820;48.738;9.092;2023-06-04T08:40:53;5.53;;;2.50;;
23302;SDS011;11820;48.738;9.092;2023-06-04T08:43:24;4.10;;;2.67;;
23302;SDS011;11820;48.738;9.092;2023-06-04T08:45:49;5.80;;;2.63;;
23302;SDS011;11820;48.738;9.092;2023-06-04T08:48:18;4.03;;;2.70;;
23302;SDS011;11820;48.738;9.092;2023-06-04T08:50:46;5.70;;;3.63;;
23302;SDS011;11820;48.738;9.092;2023-06-04T08:53:13;5.63;;;2.47;;
23302;SDS011;11820;48.738;9.092;2023-06-04T08:55:40;5.33;;;2.70;;
23302;SDS011;11820;48.738;9.092;2023-06-04T08:58:06;4.67;;;2.70;;
23302;SDS011;11820;48.738;9.092;2023-06-04T09:00:35;3.63;;;2.60;;
23302;SDS011;11820;48.738;9.092;2023-06-04T09:03:01;3.57;;;2.63;;
23302;SDS011;11820;48.738;9.092;2023-06-04T09:05:28;3.83;;;2.93;;
23302;SDS011;11820;48.738;9.092;2023-06-04T09:07:54;3.67;;;2.47;;
23302;SDS011;11820;48.738;9.092;2023-06-04T09:10:24;2.97;;;2.40;;
23302;SDS011;11820;48.738;9.092;2023-06-04T09:12:52;8.87;;;2.43;;
23302;SDS011;11820;48.738;9.092;2023-06-04T09:15:19;3.70;;;2.40;;
23302;SDS011;11820;48.738;9.092;2023-06-04T09:17:44;4.63;;;2.83;;
23302;SDS011;11820;48.738;9.092;2023-06-04T09:20:22;3.20;;;2.37;;
23302;SDS011;11820;48.738;9.092;2023-06-04T09:22:48;3.83;;;2.57;;
23302;SDS011;11820;48.738;9.092;2023-06-04T09:25:27;4.27;;;2.47;;
23302;SDS011;11820;48.738;9.092;2023-06-04T09:27:53;6.60;;;2.87;;
23302;SDS011;11820;48.738;9.092;2023-06-04T09:30:20;5.33;;;2.83;;
23302;SDS011;11820;48.738;9.092;2023-06-04T09:32:46;5.40;;;3.10;;
23302;SDS011;11820;48.738;9.092;2023-06-04T09:35:15;3.90;;;2.60;;
23302;SDS011;11820;48.738;9.092;2023-06-04T09:37:42;4.20;;;2.40;;
23302;SDS011;11820;48.738;9.092;2023-06-04T09:40:16;2.30;;;2.10;;
23302;SDS011;11820;48.738;9.092;2023-06-04T09:42:42;8.63;;;2.90;;
23302;SDS011;11820;48.738;9.092;2023-06-04T09:45:09;6.17;;;2.70;;
23302;SDS011;11820;48.738;9.092;2023-06-04T09:47:38;2.67;;;2.43;;
23302;SDS011;11820;48.738;9.092;2023-06-04T09:50:07;5.10;;;3.00;;
23302;SDS011;11820;48.738;9.092;2023-06-04T09:52:33;2.93;;;2.63;;
23302;SDS011;11820;48.738;9.092;2023-06-04T09:54:59;7.17;;;2.83;;
23302;SDS011;11820;48.738;9.092;2023-06-04T09:57:24;6.47;;;2.87;;
23302;SDS011;11820;48.738;9.092;2023-06-04T09:59:50;5.20;;;2.90;;
23302;SDS011;11820;48.738;9.092;2023-06-04T10:02:19;5.30;;;2.97;;
23302;SDS011;11820;48.738;9.092;2023-06-04T10:04:53;3.57;;;2.70;;
23302;SDS011;11820;48.738;9.092;2023-06-04T10:07:23;6.40;;;3.03;;
23302;SDS011;11820;48.738;9.092;2023-06-04T10:09:49;3.20;;;2.97;;
23302;SDS011;11820;48.738;9.092;2023-06-04T10:12:15;3.77;;;2.73;;
23302;SDS011;11820;48.738;9.092;2023-06-04T10:14:51;4.83;;;3.53;;
23302;SDS011;11820;48.738;9.092;2023-06-04T10:17:19;4.27;;;2.93;;
23302;SDS011;11820;48.738;9.092;2023-06-04T10:19:47;5.33;;;2.77;;
23302;SDS011;11820;48.738;9.092;2023-06-04T10:22:14;3.60;;;3.10;;
23302;SDS011;11820;48.738;9.092;2023-06-04T10:24:39;5.30;;;3.50;;
23302;SDS011;11820;48.738;9.092;2023-06-04T10:27:05;6.17;;;3.17;;
23302;SDS011;11820;48.738;9.092;2023-06-04T10:29:35;4.70;;;3.43;;
23302;SDS011;11820;48.738;9.092;2023-06-04T10:32:01;4.33;;;3.07;;
23302;SDS011;11820;48.738;9.092;2023-06-04T10:34:26;3.80;;;3.17;;
23302;SDS011;11820;48.738;9.092;2023-06-04T10:36:52;5.33;;;3.37;;
23302;SDS011;11820;48.738;9.092;2023-06-04T10:39:27;6.90;;;3.03;;
23302;SDS011;11820;48.738;9.092;2023-06-04T10:42:00;5.30;;;3.23;;
23302;SDS011;11820;48.738;9.092;2023-06-04T10:44:26;5.43;;;3.17;;
23302;SDS011;11820;48.738;9.092;2023-06-04T10:46:51;4.83;;;3.60;;
23302;SDS011;11820;48.738;9.092;2023-06-04T10:49:25;6.10;;;3.00;;
23302;SDS011;11820;48.738;9.092;2023-06-04T10:51:54;3.70;;;3.40;;
23302;SDS011;11820;48.738;9.092;2023-06-04T10:54:28;4.20;;;3.20;;
23302;SDS011;11820;48.738;9.092;2023-06-04T10:56:53;4.63;;;3.50;;
23302;SDS011;11820;48.738;9.092;2023-06-04T10:59:19;3.30;;;3.00;;
23302;SDS011;11820;48.738;9.092;2023-06-04T11:01:45;4.27;;;3.50;;
23302;SDS011;11820;48.738;9.092;2023-06-04T11:04:21;4.43;;;3.47;;
23302;SDS011;11820;48.738;9.092;2023-06-04T11:06:47;5.10;;;3.60;;
23302;SDS011;11820;48.738;9.092;2023-06-04T11:09:14;6.67;;;2.90;;
23302;SDS011;11820;48.738;9.092;2023-06-04T11:11:43;5.13;;;4.10;;
23302;SDS011;11820;48.738;9.092;2023-06-04T11:14:12;4.83;;;3.90;;
23302;SDS011;11820;48.738;9.092;2023-06-04T11:16:38;4.77;;;3.37;;
23302;SDS011;11820;48.738;9.092;2023-06-04T11:19:03;5.53;;;3.67;;
23302;SDS011;11820;48.738;9.092;2023-06-04T11:21:28;4.50;;;2.80;;
23302;SDS011;11820;48.738;9.092;2023-06-04T11:23:54;6.03;;;3.33;;
23302;SDS011;11820;48.738;9.092;2023-06-04T11:26:29;4.33;;;3.50;;
23302;SDS011;11820;48.738;9.092;2023-06-04T11:28:55;7.40;;;3.27;;
23302;SDS011;11820;48.738;9.092;2023-06-04T11:31:21;4.13;;;3.73;;
23302;SDS011;11820;48.738;9.092;2023-06-04T11:33:46;4.33;;;3.13;;
23302;SDS011;11820;48.738;9.092;2023-06-04T11:36:25;4.77;;;3.37;;
23302;SDS011;11820;48.738;9.092;2023-06-04T11:38:58;4.67;;;2.83;;
23302;SDS011;11820;48.738;9.092;2023-06-04T11:41:32;5.40;;;3.27;;
23302;SDS011;11820;48.738;9.092;2023-06-04T11:44:01;6.53;;;3.10;;
23302;SDS011;11820;48.738;9.092;2023-06-04T11:46:33;3.30;;;3.00;;
23302;SDS011;11820;48.738;9.092;2023-06-04T11:48:59;3.57;;;2.97;;
23302;SDS011;11820;48.738;9.092;2023-06-04T11:51:24;6.70;;;3.27;;
23302;SDS011;11820;48.738;9.092;2023-06-04T11:53:51;5.73;;;3.07;;
23302;SDS011;11820;48.738;9.092;2023-06-04T11:56:16;5.17;;;3.57;;
23302;SDS011;11820;48.738;9.092;2023-06-04T11:58:43;5.03;;;2.80;;
23302;SDS011;11820;48.738;9.092;2023-06-04T12:01:08;7.10;;;3.40;;
23302;SDS011;11820;48.738;9.092;2023-06-04T12:03:35;3.60;;;3.27;;
23302;SDS011;11820;48.738;9.092;2023-06-04T12:06:12;4.47;;;3.23;;
23302;SDS011;11820;48.738;9.092;2023-06-04T12:08:48;5.23;;;3.23;;
23302;SDS011;11820;48.738;9.092;2023-06-04T12:11:27;3.33;;;2.80;;
23302;SDS011;11820;48.738;9.092;2023-06-04T12:13:56;3.53;;;2.93;;
23302;SDS011;11820;48.738;9.092;2023-06-04T12:16:23;3.27;;;2.90;;
23302;SDS011;11820;48.738;9.092;2023-06-04T12:18:48;3.43;;;3.13;;
23302;SDS011;11820;48.738;9.092;2023-06-04T12:23:51;4.57;;;3.50;;
23302;SDS011;11820;48.738;9.092;2023-06-04T12:26:30;3.83;;;3.00;;
23302;SDS011;11820;48.738;9.092;2023-06-04T12:28:58;4.67;;;3.43;;
23302;SDS011;11820;48.738;9.092;2023-06-04T12:31:24;5.10;;;3.50;;
23302;SDS011;11820;48.738;9.092;2023-06-04T12:33:49;4.20;;;3.47;;
23302;SDS011;11820;48.738;9.092;2023-06-04T12:36:15;7.47;;;3.43;;
23302;SDS011;11820;48.738;9.092;2023-06-04T12:38:42;4.90;;;3.67;;
23302;SDS011;11820;48.738;9.092;2023-06-04T12:41:07;4.17;;;3.47;;
23302;SDS011;11820;48.738;9.092;2023-06-04T12:43:33;6.87;;;3.90;;
23302;SDS011;11820;48.738;9.092;2023-06-04T12:45:59;4.27;;;3.23;;
23302;SDS011;11820;48.738;9.092;2023-06-04T12:48:25;5.80;;;3.60;;
23302;SDS011;11820;48.738;9.092;2023-06-04T12:50:50;5.07;;;3.70;;
23302;SDS011;11820;48.738;9.092;2023-06-04T12:53:22;4.57;;;3.73;;
23302;SDS011;11820;48.738;9.092;2023-06-04T12:55:48;3.97;;;3.07;;
23302;SDS011;11820;48.738;9.092;2023-06-04T12:58:13;3.53;;;3.23;;
23302;SDS011;11820;48.738;9.092;2023-06-04T13:00:38;4.20;;;3.80;;
23302;SDS011;11820;48.738;9.092;2023-06-04T13:03:04;7.20;;;3.80;;
23302;SDS011;11820;48.738;9.092;2023-06-04T13:05:29;8.80;;;4.13;;
23302;SDS011;11820;48.738;9.092;2023-06-04T13:07:54;4.70;;;3.60;;
23302;SDS011;11820;48.738;9.092;2023-06-04T13:10:21;7.07;;;3.13;;
23302;SDS011;11820;48.738;9.092;2023-06-04T13:12:46;5.83;;;3.30;;
23302;SDS011;11820;48.738;9.092;2023-06-04T13:15:12;5.07;;;2.97;;
23302;SDS011;11820;48.738;9.092;2023-06-04T13:17:37;4.47;;;2.90;;
23302;SDS011;11820;48.738;9.092;2023-06-04T13:20:05;4.80;;;3.07;;
23302;SDS011;11820;48.738;9.092;2023-06-04T13:22:34;4.87;;;2.87;;
23302;SDS011;11820;48.738;9.092;2023-06-04T13:25:00;5.20;;;3.13;;
23302;SDS011;11820;48.738;9.092;2023-06-04T13:27:25;6.87;;;3.73;;
23302;SDS011;11820;48.738;9.092;2023-06-04T13:29:51;3.67;;;3.03;;
23302;SDS011;11820;48.738;9.092;2023-06-04T13:32:16;3.67;;;3.20;;
23302;SDS011;11820;48.738;9.092;2023-06-04T13:34:41;6.13;;;3.10;;
23302;SDS011;11820;48.738;9.092;2023-06-04T13:37:06;3.80;;;2.83;;
23302;SDS011;11820;48.738;9.092;2023-06-04T13:39:34;5.40;;;3.33;;
23302;SDS011;11820;48.738;9.092;2023-06-04T13:42:00;3.40;;;2.67;;
23302;SDS011;11820;48.738;9.092;2023-06-04T13:44:25;3.63;;;3.00;;
23302;SDS011;11820;48.738;9.092;2023-06-04T13:46:53;3.97;;;3.30;;
23302;SDS011;11820;48.738;9.092;2023-06-04T13:49:19;3.83;;;3.40;;
23302;SDS011;11820;48.738;9.092;2023-06-04T13:51:47;6.63;;;3.83;;
23302;SDS011;11820;48.738;9.092;2023-06-04T13:54:12;5.00;;;3.17;;
23302;SDS011;11820;48.738;9.092;2023-06-04T13:56:37;3.83;;;3.27;;
23302;SDS011;11820;48.738;9.092;2023-06-04T13:59:03;4.97;;;3.27;;
23302;SDS011;11820;48.738;9.092;2023-06-04T14:01:30;3.87;;;3.33;;
23302;SDS011;11820;48.738;9.092;2023-06-04T14:03:56;4.13;;;3.17;;
23302;SDS011;11820;48.738;9.092;2023-06-04T14:06:23;5.73;;;3.03;;
23302;SDS011;11820;48.738;9.092;2023-06-04T14:08:48;5.60;;;3.33;;
23302;SDS011;11820;48.738;9.092;2023-06-04T14:11:14;2.70;;;2.50;;
23302;SDS011;11820;48.738;9.092;2023-06-04T14:13:39;4.37;;;2.93;;
23302;SDS011;11820;48.738;9.092;2023-06-04T14:16:06;4.23;;;3.20;;
23302;SDS011;11820;48.738;9.092;2023-06-04T14:18:31;4.60;;;3.37;;
23302;SDS011;11820;48.738;9.092;2023-06-04T14:20:57;4.57;;;2.97;;
23302;SDS011;11820;48.738;9.092;2023-06-04T14:23:22;5.20;;;3.10;;
23302;SDS011;11820;48.738;9.092;2023-06-04T14:25:47;4.97;;;3.03;;
23302;SDS011;11820;48.738;9.092;2023-06-04T14:28:13;4.43;;;3.07;;
23302;SDS011;11820;48.738;9.092;2023-06-04T14:30:38;5.30;;;3.03;;
23302;SDS011;11820;48.738;9.092;2023-06-04T14:33:03;4.07;;;3.03;;
23302;SDS011;11820;48.738;9.092;2023-06-04T14:35:29;4.23;;;3.27;;
23302;SDS011;11820;48.738;9.092;2023-06-04T14:37:54;5.73;;;3.17;;
23302;SDS011;11820;48.738;9.092;2023-06-04T14:40:29;3.90;;;2.97;;
23302;SDS011;11820;48.738;9.092;2023-06-04T14:42:55;8.13;;;3.83;;
23302;SDS011;11820;48.738;9.092;2023-06-04T14:45:20;6.40;;;2.97;;
23302;SDS011;11820;48.738;9.092;2023-06-04T14:47:45;3.43;;;3.10;;
23302;SDS011;11820;48.738;9.092;2023-06-04T14:50:12;6.40;;;3.60;;
23302;SDS011;11820;48.738;9.092;2023-06-04T14:52:37;4.77;;;2.90;;
23302;SDS011;11820;48.738;9.092;2023-06-04T14:55:02;8.27;;;2.90;;
23302;SDS011;11820;48.738;9.092;2023-06-04T14:57:28;4.23;;;3.27;;